Chicago, IL (60696)

9:18 AM CST on March 05, 2015 (GMT -0600)
KILCHICA86 | Change Station
CLOSE
Current Station
Personal Weather Station
Location: Chicago, IL
Elevation: 630 ft
Nearby Weather Stations

Elev 630 ft 41.89 °N, 87.63 °W | Updated 1 minute ago

Partly Cloudy
Partly Cloudy
15.4 °F
Feels Like 6 °F
N
7.0
Wind Variable Wind from WNW
Gusts 12.0 mph

Today
High -- | Low -- °F
--% Chance of Precip.
Yesterday
High -- | Low -- °F
Precip. -- in
6:19 AM 5:45 PM
Full, 100% visible
Pressure 30.53 in
Visibility 10.0 miles
Clouds Few 3500 ft
Few 25000 ft
Windchill 6 °F
Dew Point 1 °F
Humidity 53%
Rainfall in
Snow Depth Not available.
UV 2 out of 12
Pollen .20 out of 12
Air Quality Not available.
Flu Activity Not available.
METAR KMDW 051453Z 31009KT 10SM FEW035 FEW250 M11/M21 A3047 RMK AO2 SLP337 T11061206 53018

More Conditions Fewer Conditions

Pressure 30.53 in
Visibility 10.0 miles
Clouds Few 3500 ft
Few 25000 ft
Windchill 6 °F
Dew Point 1 °F
Humidity 53%
Rainfall in
Snow Depth Not available.
UV 2 out of 12
Pollen .20 out of 12
Air Quality Not available.
Flu Activity Not available.
METAR KMDW 051453Z 31009KT 10SM FEW035 FEW250 M11/M21 A3047 RMK AO2 SLP337 T11061206 53018

More Conditions Fewer Conditions

10-Day Weather Forecast

Almanac

Astronomy

Mar. 05, 2015 Rise Set
Actual Time
Civil Twilight
Nautical Twilight
Astronomical Twilight
Moon
Length of Visible Light
Length of Day
Tomorrow will be .
, % of the Moon is Illuminated

Today's Extremes

State Highs State Lows

Community

WunderPhotos

Upload Photos

1,802,806 photos uploaded!

WunderBlogs® & News

Nearby

Air Quality

  Air Quality AQ Index Pollutant
Not available.

Snow Depth

Station Depth Elevation

Earthquake Activity

City Distance Mag. Time & Date
Minimum magnitude displayed is 2.5.

Coastal Water Temperatures

Place Temperature

Nearby Weather Stations